Time;durP1;ratioP1;P1;durP2;ratioP2;P2;SDS_P1;SDS_P2;PMS_P1;PMS_P2;Temp;Humidity;BMP_temperature;BMP_pressure;BME280_temperature;BME280_humidity;BME280_pressure;Samples;Min_cycle;Max_cycle;Signal;HPM_P1;HPM_P2
2022/01/01 00:01:45;;;;;;;61.97;34.03;;;;;;;8.53;100.00;99550.63;5079529;22;20294;-76
2022/01/01 00:04:12;;;;;;;57.37;29.67;;;;;;;8.63;100.00;99554.03;5102953;22;21366;-77
2022/01/01 00:06:39;;;;;;;54.07;29.60;;;;;;;8.58;100.00;99548.34;5124799;22;20713;-77
2022/01/01 00:09:05;;;;;;;46.07;27.23;;;;;;;8.59;100.00;99550.84;5114543;22;20205;-77
2022/01/01 00:11:32;;;;;;;54.13;28.93;;;;;;;8.56;100.00;99558.28;5123306;22;20206;-75
2022/01/01 00:13:59;;;;;;;53.80;29.07;;;;;;;8.55;100.00;99561.94;5123338;22;21340;-78
2022/01/01 00:16:28;;;;;;;40.10;22.70;;;;;;;8.64;100.00;99563.66;5114312;22;21334;-79
2022/01/01 00:18:55;;;;;;;40.00;21.27;;;;;;;8.67;100.00;99560.69;5105852;22;20292;-76
2022/01/01 00:21:21;;;;;;;29.87;18.20;;;;;;;8.71;100.00;99570.00;5107516;22;21230;-82
2022/01/01 00:23:48;;;;;;;29.47;17.10;;;;;;;8.79;100.00;99574.53;5118939;22;20198;-79
2022/01/01 00:26:15;;;;;;;24.77;15.20;;;;;;;8.82;100.00;99575.03;5121587;22;20256;-80
2022/01/01 00:28:41;;;;;;;21.73;13.57;;;;;;;8.93;100.00;99586.41;5151058;22;22156;-79
2022/01/01 00:31:08;;;;;;;20.13;12.03;;;;;;;8.95;100.00;99579.97;5084748;22;21101;-78
2022/01/01 00:33:35;;;;;;;20.70;12.63;;;;;;;8.97;100.00;99582.47;5089933;22;20206;-77
2022/01/01 00:36:01;;;;;;;20.30;12.00;;;;;;;8.99;100.00;99591.06;5124298;22;20266;-78
2022/01/01 00:38:28;;;;;;;20.77;11.10;;;;;;;9.06;100.00;99592.13;5123060;22;20713;-82
2022/01/01 00:40:54;;;;;;;19.93;12.23;;;;;;;9.07;100.00;99593.78;5118060;22;20570;-78
2022/01/01 00:43:21;;;;;;;15.90;11.00;;;;;;;9.05;100.00;99606.38;5124761;22;20321;-78
2022/01/01 00:45:47;;;;;;;18.70;11.43;;;;;;;9.12;100.00;99593.34;5105407;22;21246;-77
2022/01/01 00:48:14;;;;;;;20.60;11.30;;;;;;;9.13;100.00;99598.50;5115431;22;24929;-79
2022/01/01 00:50:41;;;;;;;18.87;11.67;;;;;;;9.13;100.00;99611.75;5085083;22;20198;-79
2022/01/01 00:53:07;;;;;;;20.87;10.77;;;;;;;9.16;100.00;99613.28;5123063;22;20301;-77
2022/01/01 00:55:34;;;;;;;15.27;9.90;;;;;;;9.15;100.00;99615.06;5106290;22;20580;-80
2022/01/01 00:58:01;;;;;;;15.70;9.60;;;;;;;9.15;100.00;99624.84;5117257;22;20296;-79
2022/01/01 01:00:27;;;;;;;13.60;8.60;;;;;;;9.15;100.00;99630.16;5108610;22;20206;-80
2022/01/01 01:02:54;;;;;;;15.17;7.83;;;;;;;9.12;100.00;99638.44;5102958;22;20236;-80
2022/01/01 01:05:21;;;;;;;15.63;8.77;;;;;;;9.11;100.00;99639.41;5130927;22;20206;-80
2022/01/01 01:07:47;;;;;;;14.87;8.03;;;;;;;9.09;100.00;99650.22;5120182;22;20239;-78
2022/01/01 01:10:14;;;;;;;33.07;19.23;;;;;;;9.10;100.00;99646.56;5123760;22;20254;-79
2022/01/01 01:12:45;;;;;;;26.63;13.47;;;;;;;9.08;100.00;99659.16;5118238;22;20287;-82
2022/01/01 01:15:17;;;;;;;12.03;8.03;;;;;;;9.11;100.00;99658.84;5124651;22;20209;-78
2022/01/01 01:17:48;;;;;;;12.80;7.47;;;;;;;9.08;100.00;99661.81;5096054;22;20476;-79
2022/01/01 01:20:15;;;;;;;11.60;7.80;;;;;;;9.07;100.00;99662.81;5117157;22;20239;-77
2022/01/01 01:22:42;;;;;;;9.70;6.57;;;;;;;9.01;100.00;99663.41;5112370;22;20233;-77
2022/01/01 01:25:10;;;;;;;12.60;6.57;;;;;;;9.00;100.00;99664.41;5103712;22;20232;-77
2022/01/01 01:27:37;;;;;;;10.23;6.20;;;;;;;8.97;100.00;99662.06;5078232;22;21649;-78
2022/01/01 01:30:08;;;;;;;11.27;5.53;;;;;;;8.98;100.00;99667.19;5128767;22;20212;-77
2022/01/01 01:32:35;;;;;;;10.00;5.83;;;;;;;8.98;100.00;99669.84;5125455;22;21846;-79
2022/01/01 01:35:03;;;;;;;9.93;5.97;;;;;;;9.02;100.00;99678.34;5121552;22;20208;-78
2022/01/01 01:37:29;;;;;;;10.17;5.90;;;;;;;8.94;100.00;99672.97;5119317;22;20237;-82
2022/01/01 01:39:56;;;;;;;12.27;6.20;;;;;;;8.99;100.00;99674.19;5111740;22;20343;-80
2022/01/01 01:42:25;;;;;;;9.83;5.60;;;;;;;8.94;100.00;99675.63;5124739;22;21469;-79
2022/01/01 01:44:53;;;;;;;10.30;5.60;;;;;;;8.93;100.00;99676.63;5102862;22;20213;-80
2022/01/01 01:47:29;;;;;;;12.53;5.80;;;;;;;8.94;100.00;99678.28;5102178;22;20557;-80
2022/01/01 01:49:57;;;;;;;10.37;6.47;;;;;;;8.93;100.00;99679.28;5109546;22;20219;-78
2022/01/01 01:52:24;;;;;;;12.30;6.17;;;;;;;8.99;100.00;99683.94;5114031;22;20201;-79
2022/01/01 01:54:52;;;;;;;10.83;6.33;;;;;;;9.00;100.00;99680.31;5098106;22;20202;-81
2022/01/01 01:57:19;;;;;;;10.40;7.00;;;;;;;8.96;100.00;99686.91;5103390;22;20283;-80
2022/01/01 01:59:46;;;;;;;16.53;7.53;;;;;;;8.96;100.00;99684.28;5110739;22;20198;-78
2022/01/01 02:02:13;;;;;;;12.23;7.43;;;;;;;8.95;100.00;99688.75;5129786;22;21085;-78
2022/01/01 02:04:40;;;;;;;12.23;7.40;;;;;;;8.93;100.00;99689.88;5117362;22;25353;-79
2022/01/01 02:07:09;;;;;;;15.47;8.57;;;;;;;8.99;100.00;99687.47;5127379;22;20202;-79
2022/01/01 02:09:37;;;;;;;12.70;8.00;;;;;;;8.97;100.00;99694.75;5117777;22;20206;-78
2022/01/01 02:12:08;;;;;;;14.27;8.57;;;;;;;8.93;100.00;99695.19;5102907;22;20201;-78
2022/01/01 02:17:29;;;;;;;17.17;9.93;;;;;;;8.86;100.00;99693.13;5140310;22;20533;-80
2022/01/01 02:20:02;;;;;;;15.40;8.63;;;;;;;8.84;100.00;99699.59;5121818;22;20201;-77
2022/01/01 02:22:46;;;;;;;15.93;8.70;;;;;;;8.78;100.00;99698.38;5127805;22;21132;-79
2022/01/01 02:25:14;;;;;;;15.83;8.73;;;;;;;8.72;100.00;99714.91;5122917;22;20377;-78
2022/01/01 02:27:40;;;;;;;14.27;8.50;;;;;;;8.78;100.00;99718.75;5102806;22;20600;-79
2022/01/01 02:30:10;;;;;;;16.50;8.23;;;;;;;8.73;100.00;99721.84;5126510;22;20856;-79
2022/01/01 02:32:36;;;;;;;11.70;7.10;;;;;;;8.72;100.00;99722.84;5164580;22;20269;-78
2022/01/01 02:35:08;;;;;;;13.57;7.23;;;;;;;8.74;100.00;99726.19;5102080;22;20206;-81
2022/01/01 02:37:35;;;;;;;16.43;8.60;;;;;;;8.69;100.00;99717.03;5127447;22;22836;-78
2022/01/01 02:40:02;;;;;;;16.33;8.03;;;;;;;8.69;100.00;99720.50;5113673;22;20318;-79
2022/01/01 02:42:29;;;;;;;14.07;8.30;;;;;;;8.75;100.00;99733.16;5088118;22;20202;-77
2022/01/01 02:44:58;;;;;;;16.20;8.23;;;;;;;8.74;100.00;99736.81;5120163;22;20209;-79
2022/01/01 02:47:25;;;;;;;14.20;7.87;;;;;;;8.72;100.00;99732.63;5142125;22;20357;-79
2022/01/01 02:49:52;;;;;;;13.47;8.13;;;;;;;8.70;100.00;99726.66;5086508;22;20210;-78
2022/01/01 02:52:18;;;;;;;14.23;8.53;;;;;;;8.69;100.00;99725.00;5124740;22;20202;-80
2022/01/01 02:54:45;;;;;;;15.73;8.50;;;;;;;8.69;100.00;99733.78;5121686;22;22036;-78
2022/01/01 02:57:15;;;;;;;17.50;9.67;;;;;;;8.57;100.00;99734.94;5099154;22;20272;-79
2022/01/01 02:59:41;;;;;;;12.90;8.33;;;;;;;8.55;100.00;99737.78;5116711;22;20199;-80
2022/01/01 03:02:08;;;;;;;16.57;9.00;;;;;;;8.53;100.00;99729.13;5093091;22;20205;-78
2022/01/01 03:04:35;;;;;;;15.33;8.40;;;;;;;8.56;100.00;99728.00;5102003;22;20209;-77
2022/01/01 03:07:01;;;;;;;12.27;7.80;;;;;;;8.49;100.00;99748.13;5105354;22;20607;-78
2022/01/01 03:09:34;;;;;;;14.90;7.23;;;;;;;8.45;100.00;99756.41;5110287;22;20206;-77
2022/01/01 03:12:06;;;;;;;12.97;7.10;;;;;;;8.45;100.00;99751.09;5085536;22;21077;-78
2022/01/01 03:14:33;;;;;;;11.43;6.97;;;;;;;8.47;100.00;99761.53;5123774;22;20310;-80
2022/01/01 03:17:00;;;;;;;11.10;6.23;;;;;;;8.42;100.00;99759.31;5099693;22;20202;-79
2022/01/01 03:19:27;;;;;;;10.50;6.23;;;;;;;8.37;100.00;99750.94;5098336;22;20506;-79
2022/01/01 03:21:53;;;;;;;10.63;6.50;;;;;;;8.35;100.00;99773.28;5098424;22;20213;-78
2022/01/01 03:24:20;;;;;;;12.13;6.30;;;;;;;8.36;100.00;99767.84;5106048;22;20203;-79
2022/01/01 03:26:46;;;;;;;13.57;5.77;;;;;;;8.32;100.00;99763.00;5111294;22;20208;-79
2022/01/01 03:29:13;;;;;;;10.73;5.93;;;;;;;8.37;100.00;99773.97;5123385;22;20206;-80
2022/01/01 03:31:40;;;;;;;13.10;5.90;;;;;;;8.30;100.00;99768.41;5121085;22;21162;-79
2022/01/01 03:34:07;;;;;;;8.37;5.13;;;;;;;8.30;100.00;99771.06;5118181;22;21095;-81
2022/01/01 03:36:33;;;;;;;9.70;5.33;;;;;;;8.30;100.00;99776.38;5107850;22;20621;-81
2022/01/01 03:39:00;;;;;;;9.07;5.40;;;;;;;8.25;100.00;99775.97;5119608;22;20206;-79
2022/01/01 03:41:26;;;;;;;10.17;4.57;;;;;;;8.30;100.00;99776.38;5113559;22;20586;-78
2022/01/01 03:43:53;;;;;;;6.53;4.03;;;;;;;8.23;100.00;99775.28;5119720;22;20215;-79
2022/01/01 03:46:19;;;;;;;8.17;4.30;;;;;;;8.24;100.00;99783.09;5118172;22;20609;-79
2022/01/01 03:48:46;;;;;;;6.87;4.20;;;;;;;8.22;100.00;99782.41;5117765;22;20225;-79
2022/01/01 03:51:13;;;;;;;7.80;3.90;;;;;;;8.23;100.00;99794.69;5092799;22;20217;-78
2022/01/01 03:53:39;;;;;;;6.53;3.30;;;;;;;8.17;100.00;99805.88;5102910;22;20376;-77
2022/01/01 03:56:07;;;;;;;6.00;3.30;;;;;;;8.20;100.00;99818.00;5116515;22;20204;-79
2022/01/01 03:58:34;;;;;;;6.03;3.40;;;;;;;8.12;100.00;99815.22;5118753;22;20208;-78
2022/01/01 04:01:00;;;;;;;6.50;3.23;;;;;;;8.17;100.00;99828.88;5124804;22;21703;-80
2022/01/01 04:03:27;;;;;;;8.50;3.43;;;;;;;8.23;100.00;99829.13;5099825;22;21470;-79
2022/01/01 04:05:54;;;;;;;7.10;3.73;;;;;;;8.24;100.00;99824.66;5100602;22;21820;-81
2022/01/01 04:08:20;;;;;;;7.33;3.60;;;;;;;8.16;100.00;99836.00;5130762;22;20206;-83
2022/01/01 04:10:47;;;;;;;6.50;3.17;;;;;;;8.17;100.00;99832.38;5108751;22;20213;-79
2022/01/01 04:13:14;;;;;;;6.40;3.13;;;;;;;8.17;100.00;99831.53;5112241;22;22003;-83
2022/01/01 04:15:41;;;;;;;7.57;3.40;;;;;;;8.16;100.00;99835.16;5100720;22;20980;-81
2022/01/01 04:18:11;;;;;;;6.07;3.10;;;;;;;8.15;100.00;99844.09;5108655;22;20682;-83
2022/01/01 04:20:39;;;;;;;5.70;2.90;;;;;;;8.08;100.00;99849.16;5089064;22;20256;-81
2022/01/01 04:23:08;;;;;;;5.77;3.07;;;;;;;8.06;100.00;99852.91;5111766;22;20786;-84
2022/01/01 04:25:35;;;;;;;8.57;3.50;;;;;;;8.07;100.00;99849.28;5116910;22;20571;-79
2022/01/01 04:28:02;;;;;;;8.80;3.90;;;;;;;8.01;100.00;99845.41;5093211;22;20203;-82
2022/01/01 04:30:29;;;;;;;6.23;3.33;;;;;;;8.04;100.00;99850.41;5142416;22;20527;-81
2022/01/01 04:32:56;;;;;;;6.23;3.53;;;;;;;8.01;100.00;99851.53;5117014;22;20198;-83
2022/01/01 04:35:23;;;;;;;7.80;3.57;;;;;;;8.00;100.00;99843.72;5139982;22;20255;-85
2022/01/01 04:37:49;;;;;;;6.90;3.50;;;;;;;7.94;100.00;99845.13;5125075;22;25534;-82
2022/01/01 04:40:16;;;;;;;6.30;3.30;;;;;;;7.82;100.00;99838.31;5106666;22;21764;-81
2022/01/01 04:42:42;;;;;;;7.83;3.27;;;;;;;7.69;100.00;99841.25;5133366;22;20206;-84
2022/01/01 04:45:10;;;;;;;6.53;3.50;;;;;;;7.75;100.00;99847.78;5137172;22;20202;-78
2022/01/01 04:47:37;;;;;;;7.53;3.70;;;;;;;7.83;100.00;99858.53;5102247;22;20204;-84
2022/01/01 04:50:04;;;;;;;6.97;3.60;;;;;;;7.80;100.00;99858.81;5104270;22;21225;-79
2022/01/01 04:52:31;;;;;;;6.37;3.43;;;;;;;7.73;100.00;99865.66;5103728;22;20204;-80
2022/01/01 04:54:58;;;;;;;7.63;3.07;;;;;;;7.77;100.00;99875.81;5121042;22;20372;-81
2022/01/01 04:57:30;;;;;;;5.77;3.40;;;;;;;7.74;100.00;99880.56;5132159;22;20213;-82
2022/01/01 05:00:00;;;;;;;6.80;3.20;;;;;;;7.77;100.00;99891.72;5129750;22;20475;-80
2022/01/01 05:02:26;;;;;;;4.67;2.33;;;;;;;7.72;100.00;99882.50;5151692;22;20532;-79
2022/01/01 05:04:54;;;;;;;4.33;2.50;;;;;;;7.72;100.00;99888.63;5121352;22;20201;-81
2022/01/01 05:07:21;;;;;;;4.30;2.20;;;;;;;7.74;100.00;99888.50;5107910;22;20208;-79
2022/01/01 05:09:47;;;;;;;5.40;2.47;;;;;;;7.72;100.00;99896.56;5105024;22;20206;-79
2022/01/01 05:12:14;;;;;;;6.30;2.40;;;;;;;7.63;100.00;99901.88;5128928;22;22185;-80
2022/01/01 05:14:40;;;;;;;5.40;2.30;;;;;;;7.61;100.00;99899.38;5132179;22;20206;-84
2022/01/01 05:17:07;;;;;;;4.97;2.90;;;;;;;7.67;100.00;99900.63;5084799;22;20206;-82
2022/01/01 05:19:34;;;;;;;5.00;2.17;;;;;;;7.73;100.00;99906.22;5135042;22;20676;-82
2022/01/01 05:22:00;;;;;;;4.07;2.30;;;;;;;7.75;100.00;99916.66;5113353;22;20206;-79
2022/01/01 05:24:27;;;;;;;5.00;2.70;;;;;;;7.74;100.00;99912.34;5115484;22;20198;-80
2022/01/01 05:26:57;;;;;;;5.37;2.17;;;;;;;7.76;100.00;99919.16;5099345;22;20309;-80
2022/01/01 05:29:24;;;;;;;6.27;2.70;;;;;;;7.67;100.00;99929.75;5127174;22;23802;-81
2022/01/01 05:31:51;;;;;;;7.73;2.87;;;;;;;7.68;100.00;99926.13;5131621;22;21224;-80
2022/01/01 05:34:17;;;;;;;5.97;3.00;;;;;;;7.59;100.00;99928.66;5104670;22;20843;-81
2022/01/01 05:36:44;;;;;;;6.93;3.57;;;;;;;7.55;100.00;99944.94;5124807;22;21369;-79
2022/01/01 05:39:10;;;;;;;7.13;3.57;;;;;;;7.52;100.00;99935.47;5112502;22;20205;-81
2022/01/01 05:41:37;;;;;;;8.90;3.93;;;;;;;7.51;100.00;99935.59;5106004;22;20209;-83
2022/01/01 05:44:04;;;;;;;7.17;4.17;;;;;;;7.54;100.00;99943.28;5097788;22;21179;-84
2022/01/01 05:46:31;;;;;;;6.77;3.97;;;;;;;7.57;100.00;99949.13;5104462;22;20209;-81
2022/01/01 05:48:58;;;;;;;6.37;3.80;;;;;;;7.58;100.00;99942.84;5115142;22;20224;-79
2022/01/01 05:51:25;;;;;;;7.20;3.80;;;;;;;7.58;100.00;99953.44;5114822;22;20205;-81
2022/01/01 05:53:52;;;;;;;5.70;3.57;;;;;;;7.59;100.00;99952.47;5108010;22;20249;-82
2022/01/01 05:56:18;;;;;;;6.30;3.47;;;;;;;7.64;100.00;99948.59;5098047;22;20327;-82
2022/01/01 05:58:45;;;;;;;6.17;3.40;;;;;;;7.68;100.00;99945.53;5113045;22;20545;-81
2022/01/01 06:01:11;;;;;;;5.40;3.10;;;;;;;7.64;100.00;99948.59;5114701;22;20307;-80
2022/01/01 06:03:38;;;;;;;9.63;3.17;;;;;;;7.58;100.00;99956.06;5104798;22;20206;-84
2022/01/01 06:06:05;;;;;;;6.83;3.10;;;;;;;7.57;100.00;99946.47;5095256;22;20202;-78
2022/01/01 06:08:52;;;;;;;3.97;2.60;;;;;;;7.61;100.00;99944.41;5125147;22;20220;-79
2022/01/01 06:11:19;;;;;;;4.50;2.87;;;;;;;7.60;100.00;99959.44;5125337;22;21148;-80
2022/01/01 06:13:45;;;;;;;4.83;2.57;;;;;;;7.60;100.00;99958.59;5114751;22;22594;-81
2022/01/01 06:16:12;;;;;;;4.70;2.70;;;;;;;7.55;100.00;99966.13;5130696;22;20210;-80
2022/01/01 06:18:39;;;;;;;4.67;2.43;;;;;;;7.56;100.00;99968.66;5133328;22;20930;-82
2022/01/01 06:21:05;;;;;;;4.93;2.30;;;;;;;7.52;100.00;99967.25;5125995;22;20202;-83
2022/01/01 06:23:36;;;;;;;5.10;2.30;;;;;;;7.53;100.00;99976.00;5104818;22;22457;-80
2022/01/01 06:26:04;;;;;;;3.97;2.30;;;;;;;7.55;100.00;99972.25;5128072;22;20226;-81
2022/01/01 06:28:30;;;;;;;3.17;1.90;;;;;;;7.56;100.00;99978.38;5104338;22;21701;-82
2022/01/01 06:30:57;;;;;;;6.43;2.57;;;;;;;7.58;100.00;99971.97;5129592;22;20226;-81
2022/01/01 06:33:24;;;;;;;4.00;2.40;;;;;;;7.58;100.00;99977.25;5147814;22;21102;-80
2022/01/01 06:35:50;;;;;;;4.83;2.47;;;;;;;7.55;100.00;99987.31;5139831;22;20202;-79
2022/01/01 06:38:17;;;;;;;3.57;2.23;;;;;;;7.56;100.00;99983.66;5105243;22;20298;-81
2022/01/01 06:40:44;;;;;;;4.33;2.70;;;;;;;7.57;100.00;99995.97;5100313;22;22477;-79
2022/01/01 06:43:15;;;;;;;3.93;2.50;;;;;;;7.61;100.00;99992.06;5101190;22;20746;-81
2022/01/01 06:45:42;;;;;;;5.53;2.33;;;;;;;7.61;100.00;99998.19;5108407;22;20241;-81
2022/01/01 06:48:09;;;;;;;5.57;3.00;;;;;;;7.63;100.00;99995.38;5096695;22;20205;-81
2022/01/01 06:50:37;;;;;;;6.13;2.43;;;;;;;7.65;100.00;99995.25;5104755;22;21674;-79
2022/01/01 06:53:08;;;;;;;5.27;2.60;;;;;;;7.55;100.00;99998.72;5108992;22;20217;-81
2022/01/01 06:55:35;;;;;;;3.47;2.50;;;;;;;7.59;100.00;99999.31;5131923;22;20320;-81
2022/01/01 06:58:01;;;;;;;3.87;2.60;;;;;;;7.49;100.00;100001.94;5122632;22;20202;-80
2022/01/01 07:00:28;;;;;;;6.27;2.80;;;;;;;7.46;100.00;100020.72;5118209;22;20236;-81
2022/01/01 07:02:54;;;;;;;4.47;2.63;;;;;;;7.44;100.00;100016.53;5112068;22;20212;-80
2022/01/01 07:05:21;;;;;;;4.63;2.60;;;;;;;7.45;100.00;100018.22;5140553;22;20737;-81
2022/01/01 07:07:47;;;;;;;6.67;2.90;;;;;;;7.44;100.00;100022.66;5104799;22;20208;-79
2022/01/01 07:10:14;;;;;;;3.90;2.10;;;;;;;7.38;100.00;100028.50;5128979;22;20214;-80
2022/01/01 07:12:41;;;;;;;5.90;2.53;;;;;;;7.40;100.00;100030.06;5125217;22;21660;-82
2022/01/01 07:15:10;;;;;;;4.37;2.37;;;;;;;7.31;100.00;100038.78;5094943;22;20469;-81
2022/01/01 07:17:37;;;;;;;4.47;2.40;;;;;;;7.33;100.00;100042.16;5144915;22;20202;-82
2022/01/01 07:20:05;;;;;;;4.73;2.50;;;;;;;7.41;100.00;100033.53;5126490;22;20374;-80
2022/01/01 07:22:44;;;;;;;2.93;1.83;;;;;;;7.41;100.00;100033.53;5149554;22;21105;-80
2022/01/01 07:25:12;;;;;;;3.23;2.37;;;;;;;7.40;100.00;100040.63;5130103;22;20779;-79
2022/01/01 07:27:39;;;;;;;3.13;1.97;;;;;;;7.45;100.00;100044.69;5124957;22;20818;-81
2022/01/01 07:30:07;;;;;;;4.53;2.20;;;;;;;7.40;100.00;100043.28;5139958;22;20211;-81
2022/01/01 07:32:41;;;;;;;5.30;2.13;;;;;;;7.50;100.00;100042.47;5113012;22;20499;-81
2022/01/01 07:35:09;;;;;;;3.17;1.90;;;;;;;7.55;100.00;100041.09;5094160;22;25035;-80
2022/01/01 07:37:36;;;;;;;5.07;1.97;;;;;;;7.52;100.00;100041.38;5101883;22;20636;-84
2022/01/01 07:40:05;;;;;;;3.60;1.57;;;;;;;7.60;100.00;100043.34;5136746;22;21461;-79
2022/01/01 07:42:32;;;;;;;3.47;2.00;;;;;;;7.59;100.00;100039.84;5105353;22;20201;-79
2022/01/01 07:44:59;;;;;;;5.00;2.33;;;;;;;7.52;100.00;100045.84;5105255;22;20325;-78
2022/01/01 07:47:26;;;;;;;4.00;2.33;;;;;;;7.56;100.00;100048.06;5119962;22;20706;-78
2022/01/01 07:49:53;;;;;;;3.90;2.13;;;;;;;7.51;100.00;100050.28;5117117;22;20214;-77
2022/01/01 07:52:19;;;;;;;4.63;2.37;;;;;;;7.57;100.00;100048.91;5139574;22;20204;-79
2022/01/01 07:54:46;;;;;;;5.60;2.60;;;;;;;7.55;100.00;100056.97;5148272;22;20202;-81
2022/01/01 07:57:14;;;;;;;7.00;2.80;;;;;;;7.49;100.00;100057.53;5159637;22;20780;-80
2022/01/01 07:59:41;;;;;;;4.27;2.53;;;;;;;7.57;100.00;100060.34;5162200;22;20337;-79
2022/01/01 08:02:08;;;;;;;4.80;2.43;;;;;;;7.67;100.00;100062.16;5093792;23;20683;-81
2022/01/01 08:04:35;;;;;;;5.47;2.70;;;;;;;7.75;100.00;100062.31;5147265;22;20611;-80
2022/01/01 08:07:01;;;;;;;6.97;2.70;;;;;;;7.89;100.00;100069.03;5124016;22;23520;-82
2022/01/01 08:09:48;;;;;;;4.60;2.53;;;;;;;7.91;100.00;100075.88;5123054;22;20376;-80
2022/01/01 08:12:15;;;;;;;2.67;1.87;;;;;;;7.93;100.00;100073.09;5141573;22;21444;-77
2022/01/01 08:14:41;;;;;;;6.13;2.20;;;;;;;7.89;100.00;100079.63;5105997;22;20206;-83
2022/01/01 08:17:08;;;;;;;3.20;1.90;;;;;;;7.81;100.00;100082.97;5135110;22;26165;-83
2022/01/01 08:19:35;;;;;;;4.10;2.13;;;;;;;7.83;100.00;100076.56;5148958;22;22020;-78
2022/01/01 08:22:02;;;;;;;4.57;2.13;;;;;;;7.86;100.00;100079.91;5101435;22;20704;-83
2022/01/01 08:24:28;;;;;;;4.07;2.40;;;;;;;7.86;100.00;100083.41;5128249;22;20392;-82
2022/01/01 08:26:56;;;;;;;4.50;2.50;;;;;;;7.86;100.00;100082.56;5121656;22;22070;-79
2022/01/01 08:29:23;;;;;;;5.20;2.70;;;;;;;7.89;100.00;100085.78;5129891;22;22726;-78
2022/01/01 08:31:51;;;;;;;5.00;2.60;;;;;;;7.92;100.00;100098.75;5122423;22;21605;-84
2022/01/01 08:34:19;;;;;;;5.13;2.60;;;;;;;7.85;100.00;100094.97;5142560;22;25815;-84
2022/01/01 08:36:47;;;;;;;8.97;3.23;;;;;;;7.82;100.00;100101.41;5132395;22;20213;-81
2022/01/01 08:39:14;;;;;;;6.20;3.17;;;;;;;7.78;100.00;100099.16;5131873;22;20216;-89
2022/01/01 08:41:43;;;;;;;4.80;3.23;;;;;;;7.84;100.00;100101.22;5115019;22;20379;-81
2022/01/01 08:44:09;;;;;;;6.80;3.70;;;;;;;7.67;100.00;100101.91;5127429;22;20527;-80
2022/01/01 08:46:36;;;;;;;6.00;3.87;;;;;;;7.60;100.00;100098.94;5142408;22;20216;-81
2022/01/01 08:49:05;;;;;;;7.40;4.40;;;;;;;7.68;100.00;100106.22;5134230;22;21767;-84
2022/01/01 08:51:36;;;;;;;8.83;5.40;;;;;;;7.59;100.00;100105.22;5156093;22;21725;-85
2022/01/01 08:54:03;;;;;;;11.77;6.07;;;;;;;7.65;100.00;100098.53;5150435;22;20273;-79
2022/01/01 08:56:30;;;;;;;10.30;6.13;;;;;;;7.66;100.00;100105.53;5125876;22;20680;-80
2022/01/01 08:58:56;;;;;;;11.40;7.37;;;;;;;7.61;100.00;100104.13;5136945;22;20261;-80
2022/01/01 09:01:23;;;;;;;10.73;6.87;;;;;;;7.72;100.00;100103.16;5166733;22;20260;-83
2022/01/01 09:03:50;;;;;;;10.80;6.90;;;;;;;7.83;100.00;100096.94;5144118;22;20536;-81
2022/01/01 09:06:16;;;;;;;10.73;6.47;;;;;;;7.82;100.00;100100.56;5124330;22;20262;-82
2022/01/01 09:08:43;;;;;;;10.67;8.10;;;;;;;7.76;100.00;100101.09;5119866;22;20209;-81
2022/01/01 09:11:12;;;;;;;12.67;7.97;;;;;;;7.77;100.00;100102.75;5129392;22;21502;-84
2022/01/01 09:13:42;;;;;;;10.90;7.67;;;;;;;7.79;100.00;100096.34;5090324;22;20295;-78
2022/01/01 09:16:14;;;;;;;12.47;8.10;;;;;;;7.88;100.00;100102.66;5111306;22;20262;-81
2022/01/01 09:18:42;;;;;;;12.60;7.97;;;;;;;7.91;100.00;100104.19;5104585;22;21062;-84
2022/01/01 09:21:10;;;;;;;11.57;7.57;;;;;;;7.96;100.00;100096.66;5126921;22;20759;-79
2022/01/01 09:23:36;;;;;;;11.03;8.07;;;;;;;7.94;100.00;100103.94;5112099;22;20625;-82
2022/01/01 09:26:03;;;;;;;11.13;7.53;;;;;;;8.01;100.00;100102.41;5116400;22;20229;-80
2022/01/01 09:28:31;;;;;;;10.23;7.40;;;;;;;8.12;100.00;100104.91;5125747;22;20363;-81
2022/01/01 09:30:59;;;;;;;9.37;6.60;;;;;;;8.08;100.00;100105.31;5130130;22;22826;-82
2022/01/01 09:33:29;;;;;;;8.97;6.70;;;;;;;8.06;100.00;100105.47;5119131;22;20210;-81
2022/01/01 09:36:00;;;;;;;8.23;6.57;;;;;;;8.11;100.00;100113.84;5117502;22;20205;-80
2022/01/01 09:38:27;;;;;;;10.53;6.93;;;;;;;8.13;100.00;100108.44;5101211;22;20585;-78
2022/01/01 09:40:55;;;;;;;11.67;7.47;;;;;;;8.11;100.00;100110.38;5079420;22;21760;-82
2022/01/01 09:43:23;;;;;;;11.73;7.20;;;;;;;8.12;100.00;100101.44;5115545;22;20202;-80
2022/01/01 09:45:50;;;;;;;8.37;6.90;;;;;;;8.14;100.00;100112.75;5091141;22;24940;-87
2022/01/01 09:48:19;;;;;;;10.23;6.97;;;;;;;8.19;100.00;100113.16;5085332;22;21743;-83
2022/01/01 09:50:49;;;;;;;10.73;6.70;;;;;;;8.21;100.00;100101.44;5101832;22;25025;-81
2022/01/01 09:53:18;;;;;;;10.00;6.73;;;;;;;8.13;100.00;100119.03;5121429;22;20321;-83
2022/01/01 09:55:45;;;;;;;9.20;6.87;;;;;;;8.21;100.00;100109.41;5126902;22;20205;-83
2022/01/01 09:58:12;;;;;;;12.20;7.80;;;;;;;8.29;100.00;100111.38;5137444;22;21689;-83
2022/01/01 10:00:39;;;;;;;13.57;7.77;;;;;;;8.32;100.00;100113.75;5129606;23;20663;-84
2022/01/01 10:03:11;;;;;;;17.17;10.20;;;;;;;8.28;100.00;100114.16;5097324;22;21311;-86
2022/01/01 10:06:01;;;;;;;13.50;8.73;;;;;;;8.31;100.00;100114.72;5124110;22;20294;-80
2022/01/01 10:08:28;;;;;;;12.27;7.93;;;;;;;8.26;100.00;100116.94;5137850;22;21519;-78
2022/01/01 10:10:55;;;;;;;10.97;7.63;;;;;;;8.33;100.00;100112.75;5115520;22;20724;-79
2022/01/01 10:13:27;;;;;;;14.07;8.90;;;;;;;8.33;100.00;100110.09;5177635;22;20202;-86
2022/01/01 10:15:55;;;;;;;21.23;10.00;;;;;;;8.41;100.00;100117.41;5106092;22;20202;-79
2022/01/01 10:18:29;;;;;;;15.00;9.40;;;;;;;8.34;100.00;100114.44;5098062;22;21036;-82
2022/01/01 10:21:02;;;;;;;12.20;7.87;;;;;;;8.28;100.00;100125.59;5099115;22;20201;-80
2022/01/01 10:23:31;;;;;;;14.63;9.03;;;;;;;8.23;100.00;100125.16;5093616;22;21311;-86
2022/01/01 10:29:08;;;;;;;14.70;9.40;;;;;;;8.38;100.00;100126.47;5141853;22;20912;-78
2022/01/01 10:31:36;;;;;;;16.17;9.63;;;;;;;8.38;100.00;100130.91;5114133;23;20206;-81
2022/01/01 10:34:12;;;;;;;15.67;9.93;;;;;;;8.47;100.00;100123.97;5082865;22;20209;-83
2022/01/01 10:36:39;;;;;;;15.10;10.03;;;;;;;8.63;100.00;100134.84;5209985;22;25302;-79
2022/01/01 10:39:10;;;;;;;10.67;8.10;;;;;;;8.65;100.00;100131.09;5136799;22;20210;-85
2022/01/01 10:41:44;;;;;;;9.90;8.13;;;;;;;8.74;100.00;100133.88;5099767;22;20366;-78
2022/01/01 10:44:12;;;;;;;10.37;7.13;;;;;;;8.76;100.00;100138.06;5160307;22;20264;-84
2022/01/01 10:46:39;;;;;;;9.80;7.57;;;;;;;8.81;100.00;100141.13;5191559;22;20272;-82
2022/01/01 10:52:12;;;;;;;7.53;5.30;;;;;;;8.92;100.00;100152.56;5146155;22;21495;-81
2022/01/01 10:54:47;;;;;;;6.17;4.93;;;;;;;8.85;100.00;100165.59;5133661;22;20245;-79
2022/01/01 10:57:20;;;;;;;6.63;5.23;;;;;;;8.81;100.00;100170.31;5194412;22;20208;-85
2022/01/01 10:59:49;;;;;;;6.70;4.23;;;;;;;8.74;100.00;100165.72;5142108;22;20276;-81
2022/01/01 11:02:16;;;;;;;6.77;4.27;;;;;;;8.76;100.00;100179.69;5184316;22;20260;-82
2022/01/01 11:04:43;;;;;;;5.53;4.10;;;;;;;8.66;100.00;100174.34;5112178;22;22068;-82
2022/01/01 11:07:09;;;;;;;5.23;3.70;;;;;;;8.64;100.00;100181.63;5125532;22;20213;-84
2022/01/01 11:09:36;;;;;;;5.73;3.80;;;;;;;8.66;100.00;100182.31;5091902;22;20206;-83
2022/01/01 11:12:04;;;;;;;6.13;3.93;;;;;;;8.72;100.00;100178.28;5125587;23;22412;-79
2022/01/01 11:14:32;;;;;;;6.40;4.40;;;;;;;8.64;100.00;100181.63;5089096;23;20211;-80
2022/01/01 11:16:59;;;;;;;6.33;4.30;;;;;;;8.67;100.00;100189.31;5120078;22;20307;-81
2022/01/01 11:19:26;;;;;;;5.13;3.80;;;;;;;8.72;100.00;100195.03;5098468;22;20198;-82
2022/01/01 11:21:53;;;;;;;4.97;4.13;;;;;;;8.72;100.00;100194.19;5118809;22;20220;-83
2022/01/01 11:24:23;;;;;;;5.67;4.57;;;;;;;8.73;100.00;100195.88;5131116;22;22430;-82
2022/01/01 11:26:51;;;;;;;4.67;3.73;;;;;;;8.74;100.00;100195.72;5123429;22;20740;-82
2022/01/01 11:29:17;;;;;;;3.93;2.63;;;;;;;8.70;100.00;100198.81;5158373;22;20206;-83
2022/01/01 11:31:46;;;;;;;3.50;2.63;;;;;;;8.72;99.33;100203.00;5113901;22;20232;-84
2022/01/01 11:34:14;;;;;;;3.87;2.20;;;;;;;8.65;98.63;100196.56;5119291;22;20222;-83
2022/01/01 11:36:41;;;;;;;6.77;1.93;;;;;;;8.66;98.17;100196.44;5109582;23;20894;-85
2022/01/01 11:39:12;;;;;;;3.33;2.03;;;;;;;8.70;98.03;100204.94;5086341;22;20206;-81